Changsha Huanghua Airport
ZGHA : now visible

Airfield :











YOU CAN JOIN US ON...

 
LOGIN :

Register | Disclaimer

   EN    FR    IT 

 









Legend :    VFR   Marginal VFR   IFR   Intensive IFR   Very Intensive IFR
Visi :
Ceiling :
>= 8 km
>= 3000ft
5 to 8 km
1000 to 3000 ft
1500m to 5 km
500 to 1000 ft
800 to 1500m
200 to 500 ft
< 800m
< 200 ft
Symbols :   Thunderstorms  Fog  Heavy snow  Heavy precipitations  Wind > 20 kt






- Airport Elevation : 217 ft
- IATA code : CSX


ZGHA - Changsha Huanghua

CURRENT METAR :
  • 042000Z 02002MPS 3100 BR NSC 06/04 Q1030 NOSIG

EXPIRED METARs :
  • 041900Z 36002MPS 3100 BR NSC 06/04 Q1031 NOSIG
  • 041800Z 35002MPS 3500 BR NSC 06/04 Q1031 NOSIG

TAF TAF ZGHA
Valid from the 04 at 18:00 until the 05 at 18:00 UTC


041501Z 0418/0518 35004MPS 3500 BR BKN040 TX09/0506Z TN04/0422Z
BECMG 0421/0422 2200
BECMG 0500/0501 3500
ZGZU FIR / Asia



MET'MAP, your aeronautical weather chart ! - Copyright ORBIFLY December 2007 - Disclaimer

ORBIFLY MET'MAP TEAM :

Programming & Development : Alexandra Zaïnal
Concept & original design : Baudouin d'Aumeries
Assistance for programming : Marc-Olivier Méhu
Technical & hardware support : Manuel Goepfert

Contact : metmap@orbifly.com




SOURCES & CREDITS :

   NOAA       Earth
Advisory